createdAt,value
2022-07-30T00:00:24.948Z,21.44
2022-07-30T00:03:24.488Z,21.44
2022-07-30T00:06:37.317Z,21.43
2022-07-30T00:09:24.853Z,21.45
2022-07-30T00:12:47.305Z,21.45
2022-07-30T00:16:05.292Z,21.47
2022-07-30T00:19:47.155Z,21.45
2022-07-30T00:23:00.136Z,21.43
2022-07-30T00:26:12.075Z,21.42
2022-07-30T00:29:44.911Z,21.42
2022-07-30T00:32:25.679Z,21.40
2022-07-30T00:35:21.276Z,21.42
2022-07-30T00:38:49.097Z,21.44
2022-07-30T00:42:23.048Z,21.48
2022-07-30T00:45:34.350Z,21.47
2022-07-30T00:48:32.680Z,21.41
2022-07-30T00:51:15.808Z,21.37
2022-07-30T00:53:56.585Z,21.33
2022-07-30T00:56:51.824Z,21.30
2022-07-30T01:00:22.142Z,21.29
2022-07-30T01:03:12.134Z,21.27
2022-07-30T01:06:40.321Z,21.28
2022-07-30T01:09:52.942Z,21.26
2022-07-30T01:12:52.419Z,21.31
2022-07-30T01:15:42.156Z,21.32
2022-07-30T01:18:17.074Z,21.38
2022-07-30T01:21:21.061Z,21.38
2022-07-30T01:24:06.404Z,21.37
2022-07-30T01:26:54.058Z,21.36
2022-07-30T01:29:46.888Z,21.35
2022-07-30T01:32:41.801Z,21.37
2022-07-30T01:35:32.211Z,21.35
2022-07-30T01:38:12.216Z,21.32
2022-07-30T01:40:46.307Z,21.31
2022-07-30T01:43:38.201Z,21.25
2022-07-30T01:46:21.912Z,21.23
2022-07-30T01:49:34.890Z,21.24
2022-07-30T01:52:30.589Z,21.22
2022-07-30T01:55:48.649Z,21.19
2022-07-30T01:58:39.103Z,21.16
2022-07-30T02:01:36.462Z,21.08
2022-07-30T02:04:47.316Z,21.06
2022-07-30T02:07:26.679Z,21.05
2022-07-30T02:10:07.895Z,21.06
2022-07-30T02:13:20.000Z,21.03
2022-07-30T02:16:34.086Z,21.00
2022-07-30T02:19:42.953Z,20.99
2022-07-30T02:22:25.909Z,20.99
2022-07-30T02:25:00.939Z,20.97
2022-07-30T02:28:16.546Z,20.96
2022-07-30T02:31:17.969Z,20.98
2022-07-30T02:34:02.500Z,20.99
2022-07-30T02:36:50.615Z,21.02
2022-07-30T02:39:35.443Z,21.02
2022-07-30T02:42:27.372Z,21.03
2022-07-30T02:45:22.407Z,21.02
2022-07-30T02:48:28.355Z,20.99
2022-07-30T02:51:04.958Z,20.98
2022-07-30T02:53:34.061Z,20.93
2022-07-30T02:56:29.254Z,20.92
2022-07-30T02:59:20.869Z,20.91
2022-07-30T03:02:29.358Z,20.91
2022-07-30T03:05:34.178Z,20.95
2022-07-30T03:08:19.889Z,20.98
2022-07-30T03:11:31.075Z,21.00
2022-07-30T03:14:10.840Z,21.00
2022-07-30T03:16:58.975Z,20.96
2022-07-30T03:20:07.672Z,20.99
2022-07-30T03:23:40.878Z,21.00
2022-07-30T03:26:23.710Z,21.00
2022-07-30T03:29:21.679Z,20.98
2022-07-30T03:32:15.117Z,20.96
2022-07-30T03:35:24.439Z,20.92
2022-07-30T03:38:34.606Z,20.91
2022-07-30T03:41:28.737Z,20.93
2022-07-30T03:44:43.114Z,20.98
2022-07-30T03:48:02.630Z,21.06
2022-07-30T03:51:03.244Z,21.10
2022-07-30T03:54:42.234Z,21.23
2022-07-30T03:58:11.392Z,21.33
2022-07-30T04:01:17.155Z,21.39
2022-07-30T04:04:34.517Z,21.49
2022-07-30T04:07:45.233Z,21.58
2022-07-30T04:10:36.663Z,21.67
2022-07-30T04:14:09.310Z,21.81
2022-07-30T04:17:49.976Z,21.89
2022-07-30T04:20:54.401Z,21.99
2022-07-30T04:24:03.660Z,22.07
2022-07-30T04:27:26.545Z,22.16
2022-07-30T04:30:28.795Z,22.23
2022-07-30T04:33:27.598Z,22.31
2022-07-30T04:37:02.142Z,22.40
2022-07-30T04:40:30.741Z,22.46
2022-07-30T04:43:51.323Z,22.54
2022-07-30T04:46:55.457Z,22.57
2022-07-30T04:49:56.126Z,22.59
2022-07-30T04:52:58.095Z,22.60
2022-07-30T04:55:37.438Z,22.62
2022-07-30T04:58:30.724Z,22.64
2022-07-30T05:01:45.141Z,22.66
2022-07-30T05:05:18.456Z,22.68
2022-07-30T05:08:09.588Z,22.72
2022-07-30T05:10:40.463Z,22.72
2022-07-30T05:13:38.407Z,22.72
2022-07-30T05:16:37.921Z,22.72
2022-07-30T05:19:09.858Z,22.73
2022-07-30T05:22:15.717Z,22.72
2022-07-30T05:25:16.152Z,22.74
2022-07-30T05:28:29.687Z,22.73
2022-07-30T05:31:29.355Z,22.76
2022-07-30T05:34:52.470Z,22.76
2022-07-30T05:38:00.288Z,22.80
2022-07-30T05:40:31.973Z,22.79
2022-07-30T05:43:23.407Z,22.81
2022-07-30T05:46:31.333Z,22.85
2022-07-30T05:49:19.673Z,22.91
2022-07-30T05:52:10.495Z,22.92
2022-07-30T05:55:37.025Z,22.95
2022-07-30T05:59:09.503Z,22.96
2022-07-30T06:02:14.542Z,23.01
2022-07-30T06:04:55.508Z,23.01
2022-07-30T06:07:37.151Z,23.01
2022-07-30T06:10:27.797Z,23.03
2022-07-30T06:13:24.027Z,23.04
2022-07-30T06:16:06.245Z,23.11
2022-07-30T06:19:35.180Z,23.16
2022-07-30T06:22:51.803Z,23.25
2022-07-30T06:26:09.448Z,23.36
2022-07-30T06:28:57.320Z,23.41
2022-07-30T06:31:43.307Z,23.41
2022-07-30T06:34:41.645Z,23.48
2022-07-30T06:37:58.738Z,23.55
2022-07-30T06:40:30.784Z,23.62
2022-07-30T06:43:20.694Z,23.64
2022-07-30T06:46:00.460Z,23.62
2022-07-30T06:48:53.190Z,23.57
2022-07-30T06:51:42.731Z,23.26
2022-07-30T06:54:20.119Z,23.28
2022-07-30T06:57:49.552Z,23.23
2022-07-30T07:01:12.262Z,23.06
2022-07-30T07:04:03.663Z,23.08
2022-07-30T07:06:36.149Z,23.16
2022-07-30T07:09:04.515Z,23.24
2022-07-30T07:11:56.009Z,23.27
2022-07-30T07:15:00.340Z,23.37
2022-07-30T07:17:43.613Z,23.48
2022-07-30T07:20:43.014Z,23.62
2022-07-30T07:23:12.353Z,23.74
2022-07-30T07:25:49.893Z,23.83
2022-07-30T07:28:33.635Z,23.91
2022-07-30T07:32:06.327Z,24.00
2022-07-30T07:34:20.058Z,24.13
2022-07-30T07:36:49.813Z,24.22
2022-07-30T07:39:42.435Z,24.33
2022-07-30T07:43:01.949Z,24.51
2022-07-30T07:46:02.688Z,24.71
2022-07-30T07:49:24.979Z,24.92
2022-07-30T07:52:11.238Z,25.23
2022-07-30T07:55:59.794Z,25.45
2022-07-30T07:58:38.805Z,25.77
2022-07-30T08:01:42.253Z,25.97
2022-07-30T08:05:55.824Z,26.21
2022-07-30T08:09:40.773Z,26.55
2022-07-30T08:13:04.492Z,26.89
2022-07-30T08:16:52.253Z,27.21
2022-07-30T08:20:43.379Z,27.46
2022-07-30T08:24:13.578Z,27.66
2022-07-30T08:27:41.181Z,27.93
2022-07-30T08:30:22.944Z,28.23
2022-07-30T08:33:13.726Z,28.44
2022-07-30T08:35:48.572Z,28.67
2022-07-30T08:38:25.026Z,28.83
2022-07-30T08:40:58.707Z,28.95
2022-07-30T08:43:33.835Z,29.04
2022-07-30T08:46:08.273Z,29.11
2022-07-30T08:49:07.582Z,29.17
2022-07-30T08:51:49.606Z,29.22
2022-07-30T08:54:52.270Z,29.27
2022-07-30T08:57:27.779Z,29.33
2022-07-30T09:00:16.348Z,29.45
2022-07-30T09:02:46.580Z,29.53
2022-07-30T09:05:24.540Z,29.55
2022-07-30T09:07:52.119Z,29.58
2022-07-30T09:10:26.487Z,29.63
2022-07-30T09:13:14.877Z,29.70
2022-07-30T09:15:42.093Z,29.79
2022-07-30T09:18:25.833Z,29.84
2022-07-30T09:20:53.399Z,29.94
2022-07-30T09:23:24.279Z,30.03
2022-07-30T09:26:33.678Z,30.13
2022-07-30T09:29:35.724Z,30.28
2022-07-30T09:32:23.804Z,30.47
2022-07-30T09:35:15.250Z,30.61
2022-07-30T09:38:06.544Z,30.80
2022-07-30T09:41:23.062Z,31.02
2022-07-30T09:44:09.315Z,31.25
2022-07-30T09:47:38.417Z,31.36
2022-07-30T09:50:09.169Z,31.47
2022-07-30T09:52:48.875Z,31.54
2022-07-30T09:55:58.790Z,31.61
2022-07-30T09:58:51.753Z,31.56
2022-07-30T10:02:17.057Z,31.59
2022-07-30T10:05:49.414Z,31.75
2022-07-30T10:08:57.184Z,31.93
2022-07-30T10:11:37.036Z,32.09
2022-07-30T10:14:11.296Z,32.14
2022-07-30T10:16:39.808Z,32.22
2022-07-30T10:19:07.253Z,32.28
2022-07-30T10:21:59.990Z,32.29
2022-07-30T10:25:28.093Z,32.30
2022-07-30T10:28:15.125Z,32.38
2022-07-30T10:30:44.935Z,32.53
2022-07-30T10:33:35.035Z,32.67
2022-07-30T10:36:13.563Z,32.91
2022-07-30T10:38:44.198Z,33.07
2022-07-30T10:41:42.973Z,33.26
2022-07-30T10:44:53.634Z,33.50
2022-07-30T10:48:06.251Z,33.51
2022-07-30T10:51:01.747Z,33.47
2022-07-30T10:53:38.435Z,33.59
2022-07-30T10:56:25.433Z,33.63
2022-07-30T10:59:09.247Z,33.79
2022-07-30T11:01:54.980Z,34.00
2022-07-30T11:04:29.523Z,34.24
2022-07-30T11:07:33.061Z,34.38
2022-07-30T11:10:37.540Z,34.54
2022-07-30T11:13:08.033Z,34.68
2022-07-30T11:16:15.173Z,34.54
2022-07-30T11:19:55.316Z,34.61
2022-07-30T11:22:30.702Z,34.75
2022-07-30T11:24:58.181Z,34.84
2022-07-30T11:27:52.752Z,34.81
2022-07-30T11:30:23.697Z,34.57
2022-07-30T11:33:32.030Z,34.76
2022-07-30T11:36:11.836Z,34.95
2022-07-30T11:39:12.497Z,35.14
2022-07-30T11:41:56.784Z,35.29
2022-07-30T11:44:28.229Z,35.26
2022-07-30T11:47:05.698Z,35.31
2022-07-30T11:49:45.555Z,35.21
2022-07-30T11:52:13.570Z,34.96
2022-07-30T11:55:22.274Z,34.74
2022-07-30T11:58:11.367Z,34.42
2022-07-30T12:01:09.272Z,34.17
2022-07-30T12:04:16.331Z,33.88
2022-07-30T12:07:04.758Z,33.69
2022-07-30T12:10:02.743Z,33.48
2022-07-30T12:12:51.530Z,33.18
2022-07-30T12:15:49.018Z,32.99
2022-07-30T12:18:48.711Z,32.76
2022-07-30T12:21:47.376Z,32.57
2022-07-30T12:25:04.415Z,32.40
2022-07-30T12:27:54.113Z,32.19
2022-07-30T12:30:34.396Z,32.05
2022-07-30T12:33:05.310Z,31.90
2022-07-30T12:36:28.874Z,31.78
2022-07-30T12:39:20.103Z,31.68
2022-07-30T12:42:47.745Z,31.58
2022-07-30T12:45:51.756Z,31.49
2022-07-30T12:49:16.075Z,31.44
2022-07-30T12:51:52.820Z,31.38
2022-07-30T12:55:09.318Z,31.33
2022-07-30T12:58:08.698Z,31.20
2022-07-30T13:00:53.237Z,30.91
2022-07-30T13:03:39.233Z,30.65
2022-07-30T13:06:22.959Z,30.44
2022-07-30T13:09:00.181Z,30.26
2022-07-30T13:11:49.224Z,30.02
2022-07-30T13:14:23.674Z,29.84
2022-07-30T13:16:58.333Z,29.82
2022-07-30T13:19:34.714Z,29.84
2022-07-30T13:22:01.955Z,30.16
2022-07-30T13:24:42.087Z,30.62
2022-07-30T13:27:11.887Z,31.22
2022-07-30T13:29:39.079Z,31.91
2022-07-30T13:32:06.377Z,32.53
2022-07-30T13:34:33.513Z,33.17
2022-07-30T13:37:03.503Z,34.02
2022-07-30T13:39:30.941Z,34.67
2022-07-30T13:41:58.173Z,35.44
2022-07-30T13:44:28.558Z,36.16
2022-07-30T13:47:01.730Z,36.63
2022-07-30T13:49:29.440Z,36.79
2022-07-30T13:51:58.068Z,36.74
2022-07-30T13:54:25.190Z,36.54
2022-07-30T13:57:12.871Z,36.20
2022-07-30T13:59:39.868Z,35.80
2022-07-30T14:02:08.111Z,35.41
2022-07-30T14:04:44.406Z,35.07
2022-07-30T14:07:20.418Z,34.52
2022-07-30T14:09:54.384Z,34.15
2022-07-30T14:12:32.054Z,33.79
2022-07-30T14:14:59.813Z,33.38
2022-07-30T14:17:26.893Z,32.94
2022-07-30T14:19:56.709Z,32.50
2022-07-30T14:22:35.610Z,32.10
2022-07-30T14:25:03.025Z,31.80
2022-07-30T14:27:46.821Z,31.51
2022-07-30T14:30:24.085Z,31.14
2022-07-30T14:33:07.717Z,30.90
2022-07-30T14:35:40.404Z,30.69
2022-07-30T14:38:27.710Z,30.40
2022-07-30T14:40:54.821Z,30.13
2022-07-30T14:43:24.300Z,30.02
2022-07-30T14:45:52.879Z,29.79
2022-07-30T14:48:20.309Z,29.61
2022-07-30T14:51:12.114Z,29.42
2022-07-30T14:53:50.983Z,29.26
2022-07-30T14:56:21.714Z,29.14
2022-07-30T14:58:54.133Z,28.79
2022-07-30T15:01:43.423Z,28.19
2022-07-30T15:04:23.445Z,27.84
2022-07-30T15:06:56.830Z,27.50
2022-07-30T15:09:24.551Z,27.27
2022-07-30T15:12:09.319Z,26.87
2022-07-30T15:14:38.349Z,26.47
2022-07-30T15:17:08.369Z,26.08
2022-07-30T15:19:35.789Z,25.51
2022-07-30T15:22:13.407Z,24.97
2022-07-30T15:24:50.022Z,24.33
2022-07-30T15:27:31.866Z,23.67
2022-07-30T15:30:12.439Z,23.42
2022-07-30T15:32:39.802Z,23.14
2022-07-30T15:35:30.625Z,23.18
2022-07-30T15:38:12.359Z,23.11
2022-07-30T15:41:00.097Z,22.94
2022-07-30T15:43:27.613Z,22.60
2022-07-30T15:45:56.269Z,22.40
2022-07-30T15:48:43.135Z,22.11
2022-07-30T15:51:46.928Z,21.27
2022-07-30T15:54:27.607Z,20.97
2022-07-30T15:57:43.000Z,20.86
2022-07-30T16:00:45.440Z,20.79
2022-07-30T16:03:15.077Z,20.80
2022-07-30T16:06:22.821Z,20.74
2022-07-30T16:08:51.563Z,20.70
2022-07-30T16:11:40.984Z,20.81
2022-07-30T16:14:15.859Z,20.87
2022-07-30T16:17:17.646Z,20.90
2022-07-30T16:20:22.887Z,20.95
2022-07-30T16:24:00.625Z,21.04
2022-07-30T16:26:48.141Z,21.23
2022-07-30T16:29:28.940Z,21.36
2022-07-30T16:32:16.447Z,21.45
2022-07-30T16:35:09.287Z,21.51
2022-07-30T16:37:43.960Z,21.63
2022-07-30T16:40:11.700Z,21.69
2022-07-30T16:42:52.414Z,21.79
2022-07-30T16:45:19.273Z,21.89
2022-07-30T16:47:48.755Z,21.98
2022-07-30T16:50:21.430Z,22.01
2022-07-30T16:53:01.182Z,22.07
2022-07-30T16:55:28.856Z,22.09
2022-07-30T16:57:55.784Z,22.10
2022-07-30T17:00:23.157Z,22.04
2022-07-30T17:02:51.248Z,22.02
2022-07-30T17:05:21.032Z,22.01
2022-07-30T17:07:48.028Z,21.97
2022-07-30T17:10:14.902Z,21.95
2022-07-30T17:13:16.897Z,21.91
2022-07-30T17:16:04.127Z,21.85
2022-07-30T17:19:51.451Z,21.83
2022-07-30T17:22:57.533Z,21.80
2022-07-30T17:26:10.145Z,21.72
2022-07-30T17:29:01.258Z,21.70
2022-07-30T17:31:31.425Z,21.68
2022-07-30T17:34:02.060Z,21.66
2022-07-30T17:36:34.304Z,21.63
2022-07-30T17:40:27.311Z,21.62
2022-07-30T17:42:34.396Z,21.57
2022-07-30T17:45:26.150Z,21.57
2022-07-30T17:47:58.552Z,21.58
2022-07-30T17:50:59.751Z,21.63
2022-07-30T17:53:54.173Z,21.69
2022-07-30T17:56:27.081Z,21.72
2022-07-30T17:59:16.060Z,21.64
2022-07-30T18:02:17.197Z,21.61
2022-07-30T18:05:09.939Z,21.61
2022-07-30T18:08:40.412Z,21.64
2022-07-30T18:12:18.501Z,21.68
2022-07-30T18:15:14.242Z,21.68
2022-07-30T18:17:49.422Z,21.68
2022-07-30T18:20:59.967Z,21.66
2022-07-30T18:23:35.191Z,21.64
2022-07-30T18:26:27.762Z,21.63
2022-07-30T18:30:06.771Z,21.61
2022-07-30T18:32:59.189Z,21.59
2022-07-30T18:35:51.832Z,21.58
2022-07-30T18:38:47.196Z,21.56
2022-07-30T18:42:00.564Z,21.53
2022-07-30T18:44:50.071Z,21.50
2022-07-30T18:48:08.785Z,21.47
2022-07-30T18:51:17.264Z,21.40
2022-07-30T18:54:43.499Z,21.37
2022-07-30T18:57:40.408Z,21.33
2022-07-30T19:00:34.918Z,21.29
2022-07-30T19:04:08.022Z,21.24
2022-07-30T19:07:07.282Z,21.21
2022-07-30T19:09:54.930Z,21.17
2022-07-30T19:13:09.786Z,21.13
2022-07-30T19:16:48.773Z,21.14
2022-07-30T19:19:51.175Z,21.12
2022-07-30T19:22:53.754Z,21.12
2022-07-30T19:25:59.562Z,21.13
2022-07-30T19:28:40.722Z,21.05
2022-07-30T19:31:48.679Z,21.04
2022-07-30T19:35:29.803Z,21.01
2022-07-30T19:38:58.452Z,21.00
2022-07-30T19:42:18.643Z,20.97
2022-07-30T19:45:48.773Z,20.92
2022-07-30T19:49:33.759Z,20.92
2022-07-30T19:53:07.483Z,20.93
2022-07-30T19:56:16.461Z,20.96
2022-07-30T19:59:45.981Z,20.94
2022-07-30T20:03:00.781Z,20.89
2022-07-30T20:06:34.866Z,20.90
2022-07-30T20:09:57.293Z,20.95
2022-07-30T20:12:58.260Z,20.94
2022-07-30T20:15:55.346Z,20.97
2022-07-30T20:19:10.868Z,20.97
2022-07-30T20:22:06.981Z,21.00
2022-07-30T20:25:18.710Z,21.04
2022-07-30T20:28:27.940Z,21.06
2022-07-30T20:31:49.784Z,21.08
2022-07-30T20:35:16.429Z,21.09
2022-07-30T20:38:24.855Z,21.16
2022-07-30T20:41:48.069Z,21.17
2022-07-30T20:45:26.723Z,21.18
2022-07-30T20:49:34.089Z,21.22
2022-07-30T20:52:57.834Z,21.23
2022-07-30T20:56:19.476Z,21.22
2022-07-30T20:59:47.849Z,21.20
2022-07-30T21:03:29.811Z,21.19
2022-07-30T21:06:49.274Z,21.15
2022-07-30T21:09:52.782Z,21.14
2022-07-30T21:13:41.420Z,21.13
2022-07-30T21:16:41.075Z,21.17
2022-07-30T21:20:28.913Z,21.19
2022-07-30T21:23:56.616Z,21.18
2022-07-30T21:27:29.957Z,21.17
2022-07-30T21:31:13.341Z,21.19
2022-07-30T21:34:52.073Z,21.19
2022-07-30T21:37:56.906Z,21.20
2022-07-30T21:40:45.628Z,21.18
2022-07-30T21:43:44.351Z,21.19
2022-07-30T21:46:39.738Z,21.18
2022-07-30T21:49:19.964Z,21.17
2022-07-30T21:52:11.699Z,21.16
2022-07-30T21:55:09.173Z,21.10
2022-07-30T21:58:25.841Z,21.07
2022-07-30T22:01:18.464Z,21.05
2022-07-30T22:04:09.082Z,21.01
2022-07-30T22:06:41.675Z,20.97
2022-07-30T22:09:34.341Z,20.94
2022-07-30T22:12:36.048Z,20.89
2022-07-30T22:15:26.053Z,20.85
2022-07-30T22:18:21.072Z,20.78
2022-07-30T22:21:08.811Z,20.70
2022-07-30T22:23:58.215Z,20.63
2022-07-30T22:26:36.780Z,20.62
2022-07-30T22:29:37.616Z,20.54
2022-07-30T22:32:30.389Z,20.50
2022-07-30T22:35:41.126Z,20.43
2022-07-30T22:38:34.683Z,20.42
2022-07-30T22:41:25.811Z,20.37
2022-07-30T22:44:33.590Z,20.27
2022-07-30T22:47:51.229Z,20.26
2022-07-30T22:50:15.525Z,20.24
2022-07-30T22:52:55.097Z,20.22
2022-07-30T22:56:23.941Z,20.18
2022-07-30T22:59:16.551Z,20.20
2022-07-30T23:03:07.734Z,20.15
2022-07-30T23:06:14.691Z,20.16
2022-07-30T23:09:49.224Z,20.15
2022-07-30T23:12:42.758Z,20.18
2022-07-30T23:16:04.553Z,20.16
2022-07-30T23:19:21.930Z,20.19
2022-07-30T23:22:36.831Z,20.17
2022-07-30T23:25:25.314Z,20.19
2022-07-30T23:28:37.266Z,20.20
2022-07-30T23:31:52.988Z,20.22
2022-07-30T23:34:49.722Z,20.24
2022-07-30T23:37:28.676Z,20.24
2022-07-30T23:41:01.499Z,20.26
2022-07-30T23:44:02.246Z,20.29
2022-07-30T23:47:16.350Z,20.28
2022-07-30T23:51:04.250Z,20.31
2022-07-30T23:54:21.058Z,20.28
2022-07-30T23:57:40.986Z,20.27
